sensor_id;sensor_type;location;lat;lon;timestamp;temperature;humidity
47765;DHT22;33529;49.242;8.670;2023-06-22T00:01:21;21.20;99.90
47765;DHT22;33529;49.242;8.670;2023-06-22T00:03:50;21.20;99.90
47765;DHT22;33529;49.242;8.670;2023-06-22T00:06:17;21.30;99.90
47765;DHT22;33529;49.242;8.670;2023-06-22T00:08:44;21.30;99.90
47765;DHT22;33529;49.242;8.670;2023-06-22T00:11:11;21.20;99.90
47765;DHT22;33529;49.242;8.670;2023-06-22T00:13:39;21.20;99.90
47765;DHT22;33529;49.242;8.670;2023-06-22T00:16:06;21.20;99.90
47765;DHT22;33529;49.242;8.670;2023-06-22T00:18:32;21.30;99.90
47765;DHT22;33529;49.242;8.670;2023-06-22T00:20:59;21.30;99.90
47765;DHT22;33529;49.242;8.670;2023-06-22T00:23:26;21.40;99.90
47765;DHT22;33529;49.242;8.670;2023-06-22T00:25:53;21.30;99.90
47765;DHT22;33529;49.242;8.670;2023-06-22T00:28:20;21.40;99.90
47765;DHT22;33529;49.242;8.670;2023-06-22T00:30:48;21.40;99.90
47765;DHT22;33529;49.242;8.670;2023-06-22T00:33:17;21.40;99.90
47765;DHT22;33529;49.242;8.670;2023-06-22T00:35:44;21.30;99.90
47765;DHT22;33529;49.242;8.670;2023-06-22T00:38:11;21.30;99.90
47765;DHT22;33529;49.242;8.670;2023-06-22T00:40:41;21.40;99.90
47765;DHT22;33529;49.242;8.670;2023-06-22T00:43:08;21.40;99.90
47765;DHT22;33529;49.242;8.670;2023-06-22T00:45:38;21.40;99.90
47765;DHT22;33529;49.242;8.670;2023-06-22T00:48:06;21.40;99.90
47765;DHT22;33529;49.242;8.670;2023-06-22T00:50:34;21.30;99.90
47765;DHT22;33529;49.242;8.670;2023-06-22T00:53:06;21.20;99.90
47765;DHT22;33529;49.242;8.670;2023-06-22T00:55:45;21.20;99.90
47765;DHT22;33529;49.242;8.670;2023-06-22T00:58:13;21.20;99.90
47765;DHT22;33529;49.242;8.670;2023-06-22T01:00:41;21.00;99.90
47765;DHT22;33529;49.242;8.670;2023-06-22T01:03:08;20.70;99.90
47765;DHT22;33529;49.242;8.670;2023-06-22T01:05:37;20.50;99.90
47765;DHT22;33529;49.242;8.670;2023-06-22T01:08:31;20.10;99.90
47765;DHT22;33529;49.242;8.670;2023-06-22T01:11:16;19.90;99.90
47765;DHT22;33529;49.242;8.670;2023-06-22T01:14:23;20.00;99.90
47765;DHT22;33529;49.242;8.670;2023-06-22T01:16:51;19.90;99.90
47765;DHT22;33529;49.242;8.670;2023-06-22T01:19:35;20.00;99.90
47765;DHT22;33529;49.242;8.670;2023-06-22T01:22:06;19.90;99.90
47765;DHT22;33529;49.242;8.670;2023-06-22T01:27:35;19.90;99.90
47765;DHT22;33529;49.242;8.670;2023-06-22T01:30:09;19.80;99.90
47765;DHT22;33529;49.242;8.670;2023-06-22T01:32:38;19.90;99.90
47765;DHT22;33529;49.242;8.670;2023-06-22T01:35:08;19.80;99.90
47765;DHT22;33529;49.242;8.670;2023-06-22T01:37:37;19.80;99.90
47765;DHT22;33529;49.242;8.670;2023-06-22T01:40:08;19.80;99.90
47765;DHT22;33529;49.242;8.670;2023-06-22T01:42:36;19.80;99.90
47765;DHT22;33529;49.242;8.670;2023-06-22T01:45:07;19.70;99.90
47765;DHT22;33529;49.242;8.670;2023-06-22T01:47:37;19.70;99.90
47765;DHT22;33529;49.242;8.670;2023-06-22T01:50:05;19.60;99.90
47765;DHT22;33529;49.242;8.670;2023-06-22T01:52:32;19.70;99.90
47765;DHT22;33529;49.242;8.670;2023-06-22T01:55:01;19.60;99.90
47765;DHT22;33529;49.242;8.670;2023-06-22T01:57:28;19.70;99.90
47765;DHT22;33529;49.242;8.670;2023-06-22T02:00:04;19.70;99.90
47765;DHT22;33529;49.242;8.670;2023-06-22T02:05:49;19.70;99.90
47765;DHT22;33529;49.242;8.670;2023-06-22T02:08:22;19.70;99.90
47765;DHT22;33529;49.242;8.670;2023-06-22T02:10:52;19.70;99.90
47765;DHT22;33529;49.242;8.670;2023-06-22T02:13:20;19.70;99.90
47765;DHT22;33529;49.242;8.670;2023-06-22T02:15:48;19.70;99.90
47765;DHT22;33529;49.242;8.670;2023-06-22T02:18:18;19.50;99.90
47765;DHT22;33529;49.242;8.670;2023-06-22T02:20:45;19.50;99.90
47765;DHT22;33529;49.242;8.670;2023-06-22T02:23:12;19.40;99.90
47765;DHT22;33529;49.242;8.670;2023-06-22T02:25:39;19.40;99.90
47765;DHT22;33529;49.242;8.670;2023-06-22T02:28:06;19.40;99.90
47765;DHT22;33529;49.242;8.670;2023-06-22T02:30:33;19.40;99.90
47765;DHT22;33529;49.242;8.670;2023-06-22T02:33:00;19.30;99.90
47765;DHT22;33529;49.242;8.670;2023-06-22T02:35:28;19.30;99.90
47765;DHT22;33529;49.242;8.670;2023-06-22T02:37:58;19.30;99.90
47765;DHT22;33529;49.242;8.670;2023-06-22T02:40:26;19.30;99.90
47765;DHT22;33529;49.242;8.670;2023-06-22T02:42:56;19.20;99.90
47765;DHT22;33529;49.242;8.670;2023-06-22T02:45:24;19.20;99.90
47765;DHT22;33529;49.242;8.670;2023-06-22T02:47:51;19.20;99.90
47765;DHT22;33529;49.242;8.670;2023-06-22T02:50:18;19.20;99.90
47765;DHT22;33529;49.242;8.670;2023-06-22T02:52:45;19.20;99.90
47765;DHT22;33529;49.242;8.670;2023-06-22T02:55:13;19.30;99.90
47765;DHT22;33529;49.242;8.670;2023-06-22T02:57:45;19.30;99.90
47765;DHT22;33529;49.242;8.670;2023-06-22T03:00:14;19.30;99.90
47765;DHT22;33529;49.242;8.670;2023-06-22T03:02:49;19.20;99.90
47765;DHT22;33529;49.242;8.670;2023-06-22T03:05:17;19.20;99.90
47765;DHT22;33529;49.242;8.670;2023-06-22T03:07:46;19.20;99.90
47765;DHT22;33529;49.242;8.670;2023-06-22T03:10:14;19.20;99.90
47765;DHT22;33529;49.242;8.670;2023-06-22T03:12:42;19.20;99.90
47765;DHT22;33529;49.242;8.670;2023-06-22T03:15:12;19.10;99.90
47765;DHT22;33529;49.242;8.670;2023-06-22T03:17:40;19.00;99.90
47765;DHT22;33529;49.242;8.670;2023-06-22T03:20:09;19.00;99.90
47765;DHT22;33529;49.242;8.670;2023-06-22T03:22:41;19.00;99.90
47765;DHT22;33529;49.242;8.670;2023-06-22T03:25:09;18.90;99.90
47765;DHT22;33529;49.242;8.670;2023-06-22T03:27:42;18.90;99.90
47765;DHT22;33529;49.242;8.670;2023-06-22T03:30:11;18.90;99.90
47765;DHT22;33529;49.242;8.670;2023-06-22T03:32:39;18.90;99.90
47765;DHT22;33529;49.242;8.670;2023-06-22T03:35:06;19.00;99.90
47765;DHT22;33529;49.242;8.670;2023-06-22T03:37:35;19.00;99.90
47765;DHT22;33529;49.242;8.670;2023-06-22T03:40:03;19.00;99.90
47765;DHT22;33529;49.242;8.670;2023-06-22T03:42:34;18.90;99.90
47765;DHT22;33529;49.242;8.670;2023-06-22T03:45:03;19.00;99.90
47765;DHT22;33529;49.242;8.670;2023-06-22T03:47:30;19.00;99.90
47765;DHT22;33529;49.242;8.670;2023-06-22T03:49:57;19.00;99.90
47765;DHT22;33529;49.242;8.670;2023-06-22T03:52:24;19.00;99.90
47765;DHT22;33529;49.242;8.670;2023-06-22T03:54:52;19.10;99.90
47765;DHT22;33529;49.242;8.670;2023-06-22T03:57:18;19.20;99.90
47765;DHT22;33529;49.242;8.670;2023-06-22T03:59:45;19.20;99.90
47765;DHT22;33529;49.242;8.670;2023-06-22T04:02:12;19.20;99.90
47765;DHT22;33529;49.242;8.670;2023-06-22T04:04:39;19.20;99.90
47765;DHT22;33529;49.242;8.670;2023-06-22T04:07:06;19.10;99.90
47765;DHT22;33529;49.242;8.670;2023-06-22T04:09:34;19.10;99.90
47765;DHT22;33529;49.242;8.670;2023-06-22T04:12:01;19.10;99.90
47765;DHT22;33529;49.242;8.670;2023-06-22T04:14:28;19.10;99.90
47765;DHT22;33529;49.242;8.670;2023-06-22T04:16:55;19.10;99.90
47765;DHT22;33529;49.242;8.670;2023-06-22T04:19:22;19.20;99.90
47765;DHT22;33529;49.242;8.670;2023-06-22T04:21:49;19.20;99.90
47765;DHT22;33529;49.242;8.670;2023-06-22T04:24:16;19.30;99.90
47765;DHT22;33529;49.242;8.670;2023-06-22T04:26:43;19.20;99.90
47765;DHT22;33529;49.242;8.670;2023-06-22T04:29:12;19.30;99.90
47765;DHT22;33529;49.242;8.670;2023-06-22T04:31:39;19.30;99.90
47765;DHT22;33529;49.242;8.670;2023-06-22T04:34:07;19.40;99.90
47765;DHT22;33529;49.242;8.670;2023-06-22T04:36:35;19.40;99.90
47765;DHT22;33529;49.242;8.670;2023-06-22T04:39:10;19.40;99.90
47765;DHT22;33529;49.242;8.670;2023-06-22T04:41:37;19.50;99.90
47765;DHT22;33529;49.242;8.670;2023-06-22T04:44:15;19.60;99.90
47765;DHT22;33529;49.242;8.670;2023-06-22T04:46:58;19.60;99.90
47765;DHT22;33529;49.242;8.670;2023-06-22T04:49:30;19.60;99.90
47765;DHT22;33529;49.242;8.670;2023-06-22T04:54:32;19.80;99.90
47765;DHT22;33529;49.242;8.670;2023-06-22T04:57:00;19.80;99.90
47765;DHT22;33529;49.242;8.670;2023-06-22T04:59:28;19.80;99.90
47765;DHT22;33529;49.242;8.670;2023-06-22T05:01:57;19.80;99.90
47765;DHT22;33529;49.242;8.670;2023-06-22T05:04:26;19.90;99.90
47765;DHT22;33529;49.242;8.670;2023-06-22T05:06:54;20.00;99.90
47765;DHT22;33529;49.242;8.670;2023-06-22T05:09:21;20.00;99.90
47765;DHT22;33529;49.242;8.670;2023-06-22T05:11:48;20.00;99.90
47765;DHT22;33529;49.242;8.670;2023-06-22T05:14:15;20.10;99.90
47765;DHT22;33529;49.242;8.670;2023-06-22T05:16:43;20.10;99.90
47765;DHT22;33529;49.242;8.670;2023-06-22T05:19:10;20.30;99.90
47765;DHT22;33529;49.242;8.670;2023-06-22T05:21:37;20.40;99.90
47765;DHT22;33529;49.242;8.670;2023-06-22T05:24:05;20.50;99.90
47765;DHT22;33529;49.242;8.670;2023-06-22T05:26:33;20.70;99.90
47765;DHT22;33529;49.242;8.670;2023-06-22T05:29:02;20.80;99.90
47765;DHT22;33529;49.242;8.670;2023-06-22T05:31:29;20.90;99.90
47765;DHT22;33529;49.242;8.670;2023-06-22T05:33:56;21.00;99.90
47765;DHT22;33529;49.242;8.670;2023-06-22T05:36:23;21.00;99.90
47765;DHT22;33529;49.242;8.670;2023-06-22T05:38:52;21.00;99.90
47765;DHT22;33529;49.242;8.670;2023-06-22T05:41:19;21.20;99.90
47765;DHT22;33529;49.242;8.670;2023-06-22T05:43:46;21.30;99.90
47765;DHT22;33529;49.242;8.670;2023-06-22T05:46:13;21.50;99.90
47765;DHT22;33529;49.242;8.670;2023-06-22T05:48:40;21.60;99.90
47765;DHT22;33529;49.242;8.670;2023-06-22T05:51:07;21.70;99.90
47765;DHT22;33529;49.242;8.670;2023-06-22T05:53:34;21.60;99.90
47765;DHT22;33529;49.242;8.670;2023-06-22T05:56:01;21.70;99.90
47765;DHT22;33529;49.242;8.670;2023-06-22T05:58:27;21.80;99.90
47765;DHT22;33529;49.242;8.670;2023-06-22T06:00:54;21.90;99.90
47765;DHT22;33529;49.242;8.670;2023-06-22T06:03:21;22.10;99.90
47765;DHT22;33529;49.242;8.670;2023-06-22T06:05:48;22.20;99.90
47765;DHT22;33529;49.242;8.670;2023-06-22T06:08:15;22.20;99.90
47765;DHT22;33529;49.242;8.670;2023-06-22T06:10:42;22.20;99.90
47765;DHT22;33529;49.242;8.670;2023-06-22T06:13:09;22.30;99.90
47765;DHT22;33529;49.242;8.670;2023-06-22T06:15:36;22.50;99.90
47765;DHT22;33529;49.242;8.670;2023-06-22T06:18:03;22.70;99.90
47765;DHT22;33529;49.242;8.670;2023-06-22T06:20:32;22.80;99.90
47765;DHT22;33529;49.242;8.670;2023-06-22T06:22:59;22.90;99.90
47765;DHT22;33529;49.242;8.670;2023-06-22T06:25:26;23.00;99.90
47765;DHT22;33529;49.242;8.670;2023-06-22T06:27:53;23.20;99.90
47765;DHT22;33529;49.242;8.670;2023-06-22T06:30:21;23.30;99.90
47765;DHT22;33529;49.242;8.670;2023-06-22T06:32:51;23.40;99.90
47765;DHT22;33529;49.242;8.670;2023-06-22T06:35:18;23.60;99.90
47765;DHT22;33529;49.242;8.670;2023-06-22T06:37:47;23.70;99.90
47765;DHT22;33529;49.242;8.670;2023-06-22T06:40:15;23.70;99.90
47765;DHT22;33529;49.242;8.670;2023-06-22T06:42:44;23.80;99.90
47765;DHT22;33529;49.242;8.670;2023-06-22T06:45:14;23.90;99.90
47765;DHT22;33529;49.242;8.670;2023-06-22T06:47:42;24.00;99.90
47765;DHT22;33529;49.242;8.670;2023-06-22T06:50:09;24.00;99.90
47765;DHT22;33529;49.242;8.670;2023-06-22T06:52:36;24.20;99.90
47765;DHT22;33529;49.242;8.670;2023-06-22T06:55:05;24.50;99.90
47765;DHT22;33529;49.242;8.670;2023-06-22T06:57:35;24.40;99.90
47765;DHT22;33529;49.242;8.670;2023-06-22T07:00:11;24.50;99.90
47765;DHT22;33529;49.242;8.670;2023-06-22T07:02:44;24.60;99.90
47765;DHT22;33529;49.242;8.670;2023-06-22T07:05:12;24.70;99.90
47765;DHT22;33529;49.242;8.670;2023-06-22T07:07:41;24.90;99.90
47765;DHT22;33529;49.242;8.670;2023-06-22T07:10:11;25.00;99.90
47765;DHT22;33529;49.242;8.670;2023-06-22T07:12:38;25.00;99.90
47765;DHT22;33529;49.242;8.670;2023-06-22T07:15:06;24.90;99.90
47765;DHT22;33529;49.242;8.670;2023-06-22T07:17:37;24.90;99.90
47765;DHT22;33529;49.242;8.670;2023-06-22T07:20:06;24.90;99.90
47765;DHT22;33529;49.242;8.670;2023-06-22T07:22:42;25.00;99.90
47765;DHT22;33529;49.242;8.670;2023-06-22T07:25:09;25.20;99.90
47765;DHT22;33529;49.242;8.670;2023-06-22T07:27:38;25.30;99.90
47765;DHT22;33529;49.242;8.670;2023-06-22T07:30:09;25.50;99.90
47765;DHT22;33529;49.242;8.670;2023-06-22T07:32:37;25.50;99.90
47765;DHT22;33529;49.242;8.670;2023-06-22T07:35:04;25.70;99.90
47765;DHT22;33529;49.242;8.670;2023-06-22T07:37:31;25.80;99.90
47765;DHT22;33529;49.242;8.670;2023-06-22T07:39:59;25.60;99.90
47765;DHT22;33529;49.242;8.670;2023-06-22T07:42:27;25.60;99.90
47765;DHT22;33529;49.242;8.670;2023-06-22T07:44:54;25.70;99.90
47765;DHT22;33529;49.242;8.670;2023-06-22T07:47:21;26.10;99.90
47765;DHT22;33529;49.242;8.670;2023-06-22T07:49:52;26.50;99.90
47765;DHT22;33529;49.242;8.670;2023-06-22T07:52:21;26.70;99.90
47765;DHT22;33529;49.242;8.670;2023-06-22T07:54:48;26.80;99.90
47765;DHT22;33529;49.242;8.670;2023-06-22T07:57:15;26.80;99.90
47765;DHT22;33529;49.242;8.670;2023-06-22T07:59:42;26.60;99.90
47765;DHT22;33529;49.242;8.670;2023-06-22T08:02:08;26.80;99.90
47765;DHT22;33529;49.242;8.670;2023-06-22T08:04:36;27.00;99.90
47765;DHT22;33529;49.242;8.670;2023-06-22T08:07:04;27.10;99.90
47765;DHT22;33529;49.242;8.670;2023-06-22T08:09:32;27.10;99.90
47765;DHT22;33529;49.242;8.670;2023-06-22T08:11:59;27.20;99.90
47765;DHT22;33529;49.242;8.670;2023-06-22T08:14:27;27.20;99.90
47765;DHT22;33529;49.242;8.670;2023-06-22T08:16:54;27.50;99.90
47765;DHT22;33529;49.242;8.670;2023-06-22T08:19:21;27.50;99.90
47765;DHT22;33529;49.242;8.670;2023-06-22T08:21:47;27.60;99.90
47765;DHT22;33529;49.242;8.670;2023-06-22T08:24:14;27.70;99.90
47765;DHT22;33529;49.242;8.670;2023-06-22T08:26:41;27.90;99.90
47765;DHT22;33529;49.242;8.670;2023-06-22T08:29:08;28.10;99.90
47765;DHT22;33529;49.242;8.670;2023-06-22T08:31:35;28.20;99.90
47765;DHT22;33529;49.242;8.670;2023-06-22T08:34:02;28.00;99.90
47765;DHT22;33529;49.242;8.670;2023-06-22T08:36:29;28.10;99.90
47765;DHT22;33529;49.242;8.670;2023-06-22T08:38:59;28.30;99.90
47765;DHT22;33529;49.242;8.670;2023-06-22T08:41:28;28.10;99.90
47765;DHT22;33529;49.242;8.670;2023-06-22T08:43:55;28.20;99.90
47765;DHT22;33529;49.242;8.670;2023-06-22T08:46:22;28.40;99.90
47765;DHT22;33529;49.242;8.670;2023-06-22T08:48:57;28.70;99.90
47765;DHT22;33529;49.242;8.670;2023-06-22T08:51:24;28.90;99.90
47765;DHT22;33529;49.242;8.670;2023-06-22T08:53:51;29.00;99.90
47765;DHT22;33529;49.242;8.670;2023-06-22T08:56:18;28.90;99.90
47765;DHT22;33529;49.242;8.670;2023-06-22T08:58:45;29.10;99.90
47765;DHT22;33529;49.242;8.670;2023-06-22T09:01:12;29.10;99.90
47765;DHT22;33529;49.242;8.670;2023-06-22T09:03:39;29.40;99.90
47765;DHT22;33529;49.242;8.670;2023-06-22T09:06:06;29.60;99.90
47765;DHT22;33529;49.242;8.670;2023-06-22T09:08:36;29.60;99.90
47765;DHT22;33529;49.242;8.670;2023-06-22T09:11:03;29.80;99.90
47765;DHT22;33529;49.242;8.670;2023-06-22T09:13:31;29.70;99.90
47765;DHT22;33529;49.242;8.670;2023-06-22T09:15:58;29.90;99.90
47765;DHT22;33529;49.242;8.670;2023-06-22T09:18:25;30.00;99.90
47765;DHT22;33529;49.242;8.670;2023-06-22T09:20:52;30.10;99.90
47765;DHT22;33529;49.242;8.670;2023-06-22T09:23:18;29.90;99.90
47765;DHT22;33529;49.242;8.670;2023-06-22T09:25:45;30.10;99.80
47765;DHT22;33529;49.242;8.670;2023-06-22T09:28:14;30.30;98.60
47765;DHT22;33529;49.242;8.670;2023-06-22T09:30:43;30.00;99.70
47765;DHT22;33529;49.242;8.670;2023-06-22T09:33:11;30.00;99.60
47765;DHT22;33529;49.242;8.670;2023-06-22T09:35:38;30.00;99.90
47765;DHT22;33529;49.242;8.670;2023-06-22T09:38:06;29.90;98.20
47765;DHT22;33529;49.242;8.670;2023-06-22T09:40:33;29.50;98.90
47765;DHT22;33529;49.242;8.670;2023-06-22T09:43:05;29.30;99.90
47765;DHT22;33529;49.242;8.670;2023-06-22T09:45:32;29.50;99.90
47765;DHT22;33529;49.242;8.670;2023-06-22T09:47:59;29.90;99.90
47765;DHT22;33529;49.242;8.670;2023-06-22T09:50:26;29.70;98.80
47765;DHT22;33529;49.242;8.670;2023-06-22T09:52:53;29.90;99.90
47765;DHT22;33529;49.242;8.670;2023-06-22T09:55:22;30.00;99.90
47765;DHT22;33529;49.242;8.670;2023-06-22T09:57:49;30.20;99.90
47765;DHT22;33529;49.242;8.670;2023-06-22T10:00:16;30.40;98.10
47765;DHT22;33529;49.242;8.670;2023-06-22T10:02:44;30.60;99.90
47765;DHT22;33529;49.242;8.670;2023-06-22T10:09:11;31.30;98.30
47765;DHT22;33529;49.242;8.670;2023-06-22T10:12:24;30.80;99.20
47765;DHT22;33529;49.242;8.670;2023-06-22T10:15:49;30.90;98.70
47765;DHT22;33529;49.242;8.670;2023-06-22T10:28:07;30.90;97.50
47765;DHT22;33529;49.242;8.670;2023-06-22T10:53:50;30.20;96.60
47765;DHT22;33529;49.242;8.670;2023-06-22T11:05:59;30.50;96.60
47765;DHT22;33529;49.242;8.670;2023-06-22T11:09:36;30.90;96.80
47765;DHT22;33529;49.242;8.670;2023-06-22T11:12:59;31.20;95.70
47765;DHT22;33529;49.242;8.670;2023-06-22T11:20:04;31.40;95.80
47765;DHT22;33529;49.242;8.670;2023-06-22T11:23:15;31.60;95.70
47765;DHT22;33529;49.242;8.670;2023-06-22T11:30:20;32.30;95.30
47765;DHT22;33529;49.242;8.670;2023-06-22T11:37:39;32.50;94.80
47765;DHT22;33529;49.242;8.670;2023-06-22T11:41:51;32.90;93.80
47765;DHT22;33529;49.242;8.670;2023-06-22T11:49:03;32.70;93.30
47765;DHT22;33529;49.242;8.670;2023-06-22T11:51:57;32.50;93.30
47765;DHT22;33529;49.242;8.670;2023-06-22T11:55:04;32.30;93.20
47765;DHT22;33529;49.242;8.670;2023-06-22T12:01:30;32.20;93.70
47765;DHT22;33529;49.242;8.670;2023-06-22T12:04:16;32.50;93.00
47765;DHT22;33529;49.242;8.670;2023-06-22T12:07:13;32.60;94.20
47765;DHT22;33529;49.242;8.670;2023-06-22T12:09:53;32.60;93.70
47765;DHT22;33529;49.242;8.670;2023-06-22T12:13:06;32.70;93.80
47765;DHT22;33529;49.242;8.670;2023-06-22T12:16:19;32.50;93.60
47765;DHT22;33529;49.242;8.670;2023-06-22T12:19:13;32.60;93.20
47765;DHT22;33529;49.242;8.670;2023-06-22T12:22:27;32.80;93.70
47765;DHT22;33529;49.242;8.670;2023-06-22T12:28:47;33.40;93.40
47765;DHT22;33529;49.242;8.670;2023-06-22T12:31:18;33.50;92.80
47765;DHT22;33529;49.242;8.670;2023-06-22T12:33:48;33.60;91.80
47765;DHT22;33529;49.242;8.670;2023-06-22T12:36:18;33.60;91.50
47765;DHT22;33529;49.242;8.670;2023-06-22T12:38:45;33.50;91.50
47765;DHT22;33529;49.242;8.670;2023-06-22T12:41:12;33.70;92.70
47765;DHT22;33529;49.242;8.670;2023-06-22T12:43:40;34.10;92.20
47765;DHT22;33529;49.242;8.670;2023-06-22T12:46:07;34.00;90.60
47765;DHT22;33529;49.242;8.670;2023-06-22T12:48:34;34.00;91.10
47765;DHT22;33529;49.242;8.670;2023-06-22T12:51:00;33.80;90.60
47765;DHT22;33529;49.242;8.670;2023-06-22T12:53:27;33.40;92.50
47765;DHT22;33529;49.242;8.670;2023-06-22T12:55:54;33.30;92.30
47765;DHT22;33529;49.242;8.670;2023-06-22T12:58:21;33.50;91.80
47765;DHT22;33529;49.242;8.670;2023-06-22T13:00:48;33.60;92.50
47765;DHT22;33529;49.242;8.670;2023-06-22T13:03:17;33.50;91.80
47765;DHT22;33529;49.242;8.670;2023-06-22T13:05:45;33.20;92.20
47765;DHT22;33529;49.242;8.670;2023-06-22T13:08:11;33.50;92.50
47765;DHT22;33529;49.242;8.670;2023-06-22T13:10:38;33.80;92.00
47765;DHT22;33529;49.242;8.670;2023-06-22T13:13:05;33.80;91.20
47765;DHT22;33529;49.242;8.670;2023-06-22T13:15:32;33.80;91.50
47765;DHT22;33529;49.242;8.670;2023-06-22T13:18:00;34.00;91.50
47765;DHT22;33529;49.242;8.670;2023-06-22T13:20:29;34.00;91.00
47765;DHT22;33529;49.242;8.670;2023-06-22T13:22:56;33.80;91.80
47765;DHT22;33529;49.242;8.670;2023-06-22T13:25:24;34.30;91.10
47765;DHT22;33529;49.242;8.670;2023-06-22T13:27:53;34.80;90.90
47765;DHT22;33529;49.242;8.670;2023-06-22T13:30:20;35.20;90.50
47765;DHT22;33529;49.242;8.670;2023-06-22T13:32:47;35.30;88.80
47765;DHT22;33529;49.242;8.670;2023-06-22T13:38:51;35.20;88.80
47765;DHT22;33529;49.242;8.670;2023-06-22T14:04:46;35.10;88.10
47765;DHT22;33529;49.242;8.670;2023-06-22T14:07:13;36.80;84.30
47765;DHT22;33529;49.242;8.670;2023-06-22T14:09:40;37.00;85.70
47765;DHT22;33529;49.242;8.670;2023-06-22T14:12:07;37.10;84.40
47765;DHT22;33529;49.242;8.670;2023-06-22T14:14:34;37.40;85.80
47765;DHT22;33529;49.242;8.670;2023-06-22T14:17:01;38.10;83.80
47765;DHT22;33529;49.242;8.670;2023-06-22T14:19:28;38.00;82.00
47765;DHT22;33529;49.242;8.670;2023-06-22T14:21:55;37.90;81.70
47765;DHT22;33529;49.242;8.670;2023-06-22T14:24:22;37.10;82.80
47765;DHT22;33529;49.242;8.670;2023-06-22T14:26:52;36.10;83.80
47765;DHT22;33529;49.242;8.670;2023-06-22T14:29:19;35.00;85.70
47765;DHT22;33529;49.242;8.670;2023-06-22T14:31:46;34.30;87.00
47765;DHT22;33529;49.242;8.670;2023-06-22T14:34:14;33.80;89.50
47765;DHT22;33529;49.242;8.670;2023-06-22T14:36:42;33.20;90.70
47765;DHT22;33529;49.242;8.670;2023-06-22T14:39:09;32.90;90.30
47765;DHT22;33529;49.242;8.670;2023-06-22T14:41:36;32.60;90.50
47765;DHT22;33529;49.242;8.670;2023-06-22T14:44:03;32.20;91.40
47765;DHT22;33529;49.242;8.670;2023-06-22T14:46:31;31.90;92.30
47765;DHT22;33529;49.242;8.670;2023-06-22T14:49:01;31.60;92.80
47765;DHT22;33529;49.242;8.670;2023-06-22T14:51:28;31.40;93.20
47765;DHT22;33529;49.242;8.670;2023-06-22T14:53:55;31.20;92.80
47765;DHT22;33529;49.242;8.670;2023-06-22T14:56:24;30.90;93.50
47765;DHT22;33529;49.242;8.670;2023-06-22T14:58:51;30.80;93.80
47765;DHT22;33529;49.242;8.670;2023-06-22T15:01:18;30.80;94.80
47765;DHT22;33529;49.242;8.670;2023-06-22T15:03:45;30.80;93.90
47765;DHT22;33529;49.242;8.670;2023-06-22T15:06:13;30.90;93.40
47765;DHT22;33529;49.242;8.670;2023-06-22T15:08:41;31.20;93.30
47765;DHT22;33529;49.242;8.670;2023-06-22T15:11:11;31.60;94.70
47765;DHT22;33529;49.242;8.670;2023-06-22T15:13:41;32.30;93.20
47765;DHT22;33529;49.242;8.670;2023-06-22T15:16:08;32.90;92.10
47765;DHT22;33529;49.242;8.670;2023-06-22T15:18:36;33.70;91.50
47765;DHT22;33529;49.242;8.670;2023-06-22T15:21:04;34.60;87.70
47765;DHT22;33529;49.242;8.670;2023-06-22T15:23:31;35.40;87.10
47765;DHT22;33529;49.242;8.670;2023-06-22T15:26:03;36.00;84.50
47765;DHT22;33529;49.242;8.670;2023-06-22T15:28:31;36.40;82.50
47765;DHT22;33529;49.242;8.670;2023-06-22T15:31:04;36.80;81.40
47765;DHT22;33529;49.242;8.670;2023-06-22T15:33:31;37.40;80.50
47765;DHT22;33529;49.242;8.670;2023-06-22T15:35:59;38.20;78.90
47765;DHT22;33529;49.242;8.670;2023-06-22T15:38:31;38.60;78.10
47765;DHT22;33529;49.242;8.670;2023-06-22T15:40:58;39.40;77.20
47765;DHT22;33529;49.242;8.670;2023-06-22T15:43:25;40.00;76.30
47765;DHT22;33529;49.242;8.670;2023-06-22T15:45:55;40.80;73.40
47765;DHT22;33529;49.242;8.670;2023-06-22T15:48:22;40.70;72.70
47765;DHT22;33529;49.242;8.670;2023-06-22T15:50:49;40.70;73.50
47765;DHT22;33529;49.242;8.670;2023-06-22T15:53:16;41.20;70.80
47765;DHT22;33529;49.242;8.670;2023-06-22T15:55:43;41.40;70.90
47765;DHT22;33529;49.242;8.670;2023-06-22T15:58:10;40.60;70.40
47765;DHT22;33529;49.242;8.670;2023-06-22T16:00:39;40.00;71.30
47765;DHT22;33529;49.242;8.670;2023-06-22T16:03:06;40.10;71.20
47765;DHT22;33529;49.242;8.670;2023-06-22T16:05:34;40.00;71.20
47765;DHT22;33529;49.242;8.670;2023-06-22T16:08:01;39.50;72.30
47765;DHT22;33529;49.242;8.670;2023-06-22T16:10:27;39.00;72.60
47765;DHT22;33529;49.242;8.670;2023-06-22T16:12:55;38.10;73.30
47765;DHT22;33529;49.242;8.670;2023-06-22T16:15:22;37.00;75.50
47765;DHT22;33529;49.242;8.670;2023-06-22T16:17:49;36.40;75.60
47765;DHT22;33529;49.242;8.670;2023-06-22T16:20:16;35.60;77.90
47765;DHT22;33529;49.242;8.670;2023-06-22T16:22:44;35.00;79.80
47765;DHT22;33529;49.242;8.670;2023-06-22T16:25:13;34.50;78.60
47765;DHT22;33529;49.242;8.670;2023-06-22T16:27:39;34.20;78.50
47765;DHT22;33529;49.242;8.670;2023-06-22T16:30:07;33.90;79.30
47765;DHT22;33529;49.242;8.670;2023-06-22T16:32:34;33.50;80.30
47765;DHT22;33529;49.242;8.670;2023-06-22T16:35:02;33.10;79.80
47765;DHT22;33529;49.242;8.670;2023-06-22T16:37:29;32.70;81.80
47765;DHT22;33529;49.242;8.670;2023-06-22T16:39:56;32.60;82.70
47765;DHT22;33529;49.242;8.670;2023-06-22T16:42:23;32.40;82.40
47765;DHT22;33529;49.242;8.670;2023-06-22T16:44:50;32.30;82.60
47765;DHT22;33529;49.242;8.670;2023-06-22T16:47:16;32.10;82.50
47765;DHT22;33529;49.242;8.670;2023-06-22T16:49:43;32.20;82.00
47765;DHT22;33529;49.242;8.670;2023-06-22T16:52:10;32.30;82.40
47765;DHT22;33529;49.242;8.670;2023-06-22T16:54:37;32.40;83.10
47765;DHT22;33529;49.242;8.670;2023-06-22T16:57:18;32.50;81.70
47765;DHT22;33529;49.242;8.670;2023-06-22T16:59:46;32.50;82.50
47765;DHT22;33529;49.242;8.670;2023-06-22T17:02:17;32.50;82.40
47765;DHT22;33529;49.242;8.670;2023-06-22T17:04:46;32.30;83.90
47765;DHT22;33529;49.242;8.670;2023-06-22T17:07:15;32.10;84.20
47765;DHT22;33529;49.242;8.670;2023-06-22T17:09:46;31.80;86.10
47765;DHT22;33529;49.242;8.670;2023-06-22T17:12:14;31.70;86.70
47765;DHT22;33529;49.242;8.670;2023-06-22T17:14:42;31.70;87.30
47765;DHT22;33529;49.242;8.670;2023-06-22T17:17:12;31.60;87.00
47765;DHT22;33529;49.242;8.670;2023-06-22T17:19:40;31.60;85.40
47765;DHT22;33529;49.242;8.670;2023-06-22T17:22:07;31.50;85.10
47765;DHT22;33529;49.242;8.670;2023-06-22T17:24:35;31.30;85.40
47765;DHT22;33529;49.242;8.670;2023-06-22T17:27:02;30.90;85.00
47765;DHT22;33529;49.242;8.670;2023-06-22T17:29:30;30.80;85.90
47765;DHT22;33529;49.242;8.670;2023-06-22T17:31:58;30.80;86.10
47765;DHT22;33529;49.242;8.670;2023-06-22T17:34:28;30.70;87.00
47765;DHT22;33529;49.242;8.670;2023-06-22T17:36:56;30.60;87.10